Time;durP1;ratioP1;P1;durP2;ratioP2;P2;SDS_P1;SDS_P2;PMS_P1;PMS_P2;Temp;Humidity;BMP_temperature;BMP_pressure;BME280_temperature;BME280_humidity;BME280_pressure;Samples;Min_cycle;Max_cycle;Signal;HPM_P1;HPM_P2
2021/04/21 00:00:28;;;;;;;;;;;;;;;;;;5035591;28;19928;-58
2021/04/21 00:02:54;;;;;;;;;;;;;;;;;;5049031;28;19970;-57
2021/04/21 00:05:20;;;;;;;;;;;;;;;;;;5035532;28;19920;-63
2021/04/21 00:07:46;;;;;;;;;;;;;;;;;;5035627;28;19991;-53
2021/04/21 00:10:11;;;;;;;;;;;;;;;;;;5033625;28;20032;-56
2021/04/21 00:12:37;;;;;;;;;;;;;;;;;;5033903;28;19919;-54
2021/04/21 00:15:03;;;;;;;;;;;;;;;;;;5033645;28;20015;-57
2021/04/21 00:17:29;;;;;;;;;;;;;;;;;;5033904;28;20338;-54
2021/04/21 00:19:55;;;;;;;;;;;;;;;;;;5047270;28;19927;-55
2021/04/21 00:22:21;;;;;;;;;;;;;;;;;;5035870;28;19904;-57
2021/04/21 00:24:47;;;;;;;;;;;;;;;;;;5053296;28;20413;-57
2021/04/21 00:27:13;;;;;;;;;;;;;;;;;;5050093;28;20469;-56
2021/04/21 00:29:39;;;;;;;;;;;;;;;;;;5036437;28;20355;-56
2021/04/21 00:32:05;;;;;;;;;;;;;;;;;;5047226;28;19971;-56
2021/04/21 00:34:31;;;;;;;;;;;;;;;;;;5033268;28;20386;-57
2021/04/21 00:36:57;;;;;;;;;;;;;;;;;;5033247;28;19978;-56
2021/04/21 00:39:23;;;;;;;;;;;;;;;;;;5038238;28;19909;-57
2021/04/21 00:41:49;;;;;;;;;;;;;;;;;;5042088;28;19909;-56
2021/04/21 00:44:15;;;;;;;;;;;;;;;;;;5032956;28;19905;-57
2021/04/21 00:46:41;;;;;;;;;;;;;;;;;;5032875;28;19916;-55
2021/04/21 00:49:07;;;;;;;;;;;;;;;;;;5033029;28;19911;-57
2021/04/21 00:51:33;;;;;;;;;;;;;;;;;;5033122;28;19927;-58
2021/04/21 00:53:58;;;;;;;;;;;;;;;;;;5033101;28;20328;-57
2021/04/21 00:56:24;;;;;;;;;;;;;;;;;;5037236;28;19909;-56
2021/04/21 00:58:50;;;;;;;;;;;;;;;;;;5042055;28;19905;-55
2021/04/21 01:01:16;;;;;;;;;;;;;;;;;;5032867;28;19920;-56
2021/04/21 01:03:42;;;;;;;;;;;;;;;;;;5032895;28;19909;-56
2021/04/21 01:06:08;;;;;;;;;;;;;;;;;;5032641;28;19921;-57
2021/04/21 01:08:34;;;;;;;;;;;;;;;;;;5033077;28;20287;-56
2021/04/21 01:11:00;;;;;;;;;;;;;;;;;;5032749;28;19912;-56
2021/04/21 01:13:26;;;;;;;;;;;;;;;;;;5032438;28;20321;-55
2021/04/21 01:15:52;;;;;;;;;;;;;;;;;;5032714;28;20019;-57
2021/04/21 01:18:18;;;;;;;;;;;;;;;;;;5032494;28;19990;-56
2021/04/21 01:20:43;;;;;;;;;;;;;;;;;;5041466;28;19967;-56
2021/04/21 01:23:09;;;;;;;;;;;;;;;;;;5038428;28;20363;-56
2021/04/21 01:25:35;;;;;;;;;;;;;;;;;;5052709;28;20355;-57
2021/04/21 01:28:01;;;;;;;;;;;;;;;;;;5052656;28;19958;-54
2021/04/21 01:30:27;;;;;;;;;;;;;;;;;;5051870;28;19958;-56
2021/04/21 01:32:53;;;;;;;;;;;;;;;;;;5041646;28;19913;-56
2021/04/21 01:35:20;;;;;;;;;;;;;;;;;;5031563;28;20260;-56
2021/04/21 01:37:46;;;;;;;;;;;;;;;;;;5032533;28;19909;-56
2021/04/21 01:40:12;;;;;;;;;;;;;;;;;;5031827;28;19905;-56
2021/04/21 01:42:38;;;;;;;;;;;;;;;;;;5032330;28;19968;-57
2021/04/21 01:45:04;;;;;;;;;;;;;;;;;;5031293;28;19916;-55
2021/04/21 01:47:30;;;;;;;;;;;;;;;;;;5031455;28;19905;-56
2021/04/21 01:49:56;;;;;;;;;;;;;;;;;;5031348;28;20255;-57
2021/04/21 01:52:21;;;;;;;;;;;;;;;;;;5031649;28;19912;-57
2021/04/21 01:54:47;;;;;;;;;;;;;;;;;;5040518;28;20043;-57
2021/04/21 01:57:14;;;;;;;;;;;;;;;;;;5053473;28;19944;-57
2021/04/21 01:59:40;;;;;;;;;;;;;;;;;;5056216;28;19904;-56
2021/04/21 02:02:06;;;;;;;;;;;;;;;;;;5055672;28;20151;-55
2021/04/21 02:04:32;;;;;;;;;;;;;;;;;;5056284;28;20330;-57
2021/04/21 02:06:58;;;;;;;;;;;;;;;;;;5056297;28;19963;-57
2021/04/21 02:09:24;;;;;;;;;;;;;;;;;;5056250;28;19904;-57
2021/04/21 02:11:50;;;;;;;;;;;;;;;;;;5055975;28;20351;-57
2021/04/21 02:14:16;;;;;;;;;;;;;;;;;;5055383;28;19919;-57
2021/04/21 02:16:41;;;;;;;;;;;;;;;;;;5035854;28;20348;-56
2021/04/21 02:19:07;;;;;;;;;;;;;;;;;;5051354;28;20350;-58
2021/04/21 02:21:33;;;;;;;;;;;;;;;;;;5058496;28;19958;-58
2021/04/21 02:23:59;;;;;;;;;;;;;;;;;;5058877;28;19909;-54
2021/04/21 02:26:25;;;;;;;;;;;;;;;;;;5045157;28;20381;-57
2021/04/21 02:28:51;;;;;;;;;;;;;;;;;;5059232;28;19947;-60
2021/04/21 02:31:17;;;;;;;;;;;;;;;;;;5058539;28;19905;-58
2021/04/21 02:33:43;;;;;;;;;;;;;;;;;;5041841;28;19932;-57
2021/04/21 02:36:09;;;;;;;;;;;;;;;;;;5039413;28;20378;-58
2021/04/21 02:38:35;;;;;;;;;;;;;;;;;;5037222;28;19916;-58
2021/04/21 02:41:01;;;;;;;;;;;;;;;;;;5035413;28;19980;-54
2021/04/21 02:43:27;;;;;;;;;;;;;;;;;;5038288;28;19909;-55
2021/04/21 02:45:53;;;;;;;;;;;;;;;;;;5036525;28;20275;-57
2021/04/21 02:48:19;;;;;;;;;;;;;;;;;;5036090;28;19905;-57
2021/04/21 02:50:45;;;;;;;;;;;;;;;;;;5035905;28;19909;-57
2021/04/21 02:53:11;;;;;;;;;;;;;;;;;;5035985;28;19913;-57
2021/04/21 02:55:37;;;;;;;;;;;;;;;;;;5036132;28;20264;-57
2021/04/21 02:58:03;;;;;;;;;;;;;;;;;;5036126;28;19905;-58
2021/04/21 03:00:28;;;;;;;;;;;;;;;;;;5035762;28;19905;-57
2021/04/21 03:02:54;;;;;;;;;;;;;;;;;;5035811;28;19909;-57
2021/04/21 03:05:20;;;;;;;;;;;;;;;;;;5035658;28;19917;-57
2021/04/21 03:07:46;;;;;;;;;;;;;;;;;;5017813;28;20340;-57
2021/04/21 03:10:12;;;;;;;;;;;;;;;;;;5035558;28;20047;-57
2021/04/21 03:12:38;;;;;;;;;;;;;;;;;;5042617;28;19913;-58
2021/04/21 03:15:04;;;;;;;;;;;;;;;;;;5054956;28;20387;-57
2021/04/21 03:17:31;;;;;;;;;;;;;;;;;;5056956;28;19904;-58
2021/04/21 03:19:57;;;;;;;;;;;;;;;;;;5056707;28;19990;-57
2021/04/21 03:22:23;;;;;;;;;;;;;;;;;;5057104;28;19904;-59
2021/04/21 03:24:49;;;;;;;;;;;;;;;;;;5057310;28;19912;-60
2021/04/21 03:27:15;;;;;;;;;;;;;;;;;;5057474;28;19999;-56
2021/04/21 03:29:41;;;;;;;;;;;;;;;;;;5057120;28;20008;-59
2021/04/21 03:32:06;;;;;;;;;;;;;;;;;;5056966;28;20023;-57
2021/04/21 03:34:33;;;;;;;;;;;;;;;;;;5057878;28;19909;-57
2021/04/21 03:36:59;;;;;;;;;;;;;;;;;;5056858;28;19912;-60
2021/04/21 03:39:24;;;;;;;;;;;;;;;;;;5055215;28;19912;-56
2021/04/21 03:41:50;;;;;;;;;;;;;;;;;;5055120;28;19901;-57
2021/04/21 03:44:16;;;;;;;;;;;;;;;;;;5037177;28;20270;-57
2021/04/21 03:46:42;;;;;;;;;;;;;;;;;;5054692;28;19908;-56
2021/04/21 03:49:08;;;;;;;;;;;;;;;;;;5054482;28;19905;-55
2021/04/21 03:51:34;;;;;;;;;;;;;;;;;;5037276;28;20003;-57
2021/04/21 03:54:00;;;;;;;;;;;;;;;;;;5054667;28;20015;-55
2021/04/21 03:56:26;;;;;;;;;;;;;;;;;;5055057;28;20046;-55
2021/04/21 03:58:52;;;;;;;;;;;;;;;;;;5054568;28;19936;-58
2021/04/21 04:01:18;;;;;;;;;;;;;;;;;;5049470;28;20393;-57
2021/04/21 04:03:44;;;;;;;;;;;;;;;;;;5033891;28;20343;-55
2021/04/21 04:06:09;;;;;;;;;;;;;;;;;;5033997;28;19921;-56
2021/04/21 04:08:35;;;;;;;;;;;;;;;;;;5033781;28;20366;-56
2021/04/21 04:11:01;;;;;;;;;;;;;;;;;;5034028;28;19905;-56
2021/04/21 04:13:27;;;;;;;;;;;;;;;;;;5033989;28;19913;-55
2021/04/21 04:15:53;;;;;;;;;;;;;;;;;;5034385;28;20004;-56
2021/04/21 04:18:19;;;;;;;;;;;;;;;;;;5033572;28;19992;-57
2021/04/21 04:20:45;;;;;;;;;;;;;;;;;;5033063;28;20410;-56
2021/04/21 04:23:11;;;;;;;;;;;;;;;;;;5034153;28;19948;-57
2021/04/21 04:25:37;;;;;;;;;;;;;;;;;;5033424;28;19970;-55
2021/04/21 04:28:03;;;;;;;;;;;;;;;;;;5034126;28;20307;-56
2021/04/21 04:30:28;;;;;;;;;;;;;;;;;;5033537;28;19951;-57
2021/04/21 04:32:54;;;;;;;;;;;;;;;;;;5034067;28;19916;-58
2021/04/21 04:35:20;;;;;;;;;;;;;;;;;;5033016;28;19909;-57
2021/04/21 04:37:46;;;;;;;;;;;;;;;;;;5034655;28;19992;-58
2021/04/21 04:40:13;;;;;;;;;;;;;;;;;;5016472;28;20377;-57
2021/04/21 04:42:39;;;;;;;;;;;;;;;;;;5016684;28;20290;-56
2021/04/21 04:45:05;;;;;;;;;;;;;;;;;;5035236;28;19909;-57
2021/04/21 04:47:31;;;;;;;;;;;;;;;;;;5034831;28;20311;-56
2021/04/21 04:49:57;;;;;;;;;;;;;;;;;;5034750;28;19943;-59
2021/04/21 04:52:23;;;;;;;;;;;;;;;;;;5033969;28;19913;-57
2021/04/21 04:54:49;;;;;;;;;;;;;;;;;;5033445;28;19909;-56
2021/04/21 04:57:15;;;;;;;;;;;;;;;;;;5033073;28;19913;-56
2021/04/21 04:59:41;;;;;;;;;;;;;;;;;;5033245;28;19905;-56
2021/04/21 05:02:07;;;;;;;;;;;;;;;;;;5033122;28;19912;-56
2021/04/21 05:04:33;;;;;;;;;;;;;;;;;;5032836;28;20361;-56
2021/04/21 05:06:59;;;;;;;;;;;;;;;;;;5033473;28;19921;-56
2021/04/21 05:09:25;;;;;;;;;;;;;;;;;;5032929;28;19909;-56
2021/04/21 05:11:51;;;;;;;;;;;;;;;;;;5015574;28;19988;-56
2021/04/21 05:14:16;;;;;;;;;;;;;;;;;;5032607;28;20459;-56
2021/04/21 05:16:42;;;;;;;;;;;;;;;;;;5033083;28;19905;-56
2021/04/21 05:19:08;;;;;;;;;;;;;;;;;;5032702;28;20356;-56
2021/04/21 05:21:34;;;;;;;;;;;;;;;;;;5032614;28;19916;-56
2021/04/21 05:24:00;;;;;;;;;;;;;;;;;;5032699;28;19912;-56
2021/04/21 05:26:26;;;;;;;;;;;;;;;;;;5032821;28;19909;-56
2021/04/21 05:28:52;;;;;;;;;;;;;;;;;;5032879;28;19921;-56
2021/04/21 05:31:18;;;;;;;;;;;;;;;;;;5031659;28;19912;-56
2021/04/21 05:33:44;;;;;;;;;;;;;;;;;;5032823;28;19926;-55
2021/04/21 05:36:10;;;;;;;;;;;;;;;;;;5032408;28;19909;-53
2021/04/21 05:38:36;;;;;;;;;;;;;;;;;;5032599;28;19905;-56
2021/04/21 05:41:02;;;;;;;;;;;;;;;;;;5032256;28;20382;-56
2021/04/21 05:43:28;;;;;;;;;;;;;;;;;;5033261;28;19905;-56
2021/04/21 05:45:53;;;;;;;;;;;;;;;;;;5032943;28;19912;-55
2021/04/21 05:48:20;;;;;;;;;;;;;;;;;;5033096;28;19905;-56
2021/04/21 05:50:46;;;;;;;;;;;;;;;;;;5032487;28;19913;-56
2021/04/21 05:53:12;;;;;;;;;;;;;;;;;;5032969;28;20028;-59
2021/04/21 05:55:38;;;;;;;;;;;;;;;;;;5032829;28;19905;-57
2021/04/21 05:58:04;;;;;;;;;;;;;;;;;;5033114;28;20085;-57
2021/04/21 06:00:30;;;;;;;;;;;;;;;;;;5032299;28;20270;-56
2021/04/21 06:02:56;;;;;;;;;;;;;;;;;;5033176;28;20375;-56
2021/04/21 06:05:22;;;;;;;;;;;;;;;;;;5032711;28;19917;-62
2021/04/21 06:07:47;;;;;;;;;;;;;;;;;;5032760;28;19913;-71
2021/04/21 06:10:13;;;;;;;;;;;;;;;;;;5032976;28;19912;-64
2021/04/21 06:12:39;;;;;;;;;;;;;;;;;;5030907;28;19912;-64
2021/04/21 06:15:05;;;;;;;;;;;;;;;;;;5032479;28;20244;-65
2021/04/21 06:17:31;;;;;;;;;;;;;;;;;;5032469;28;19916;-54
2021/04/21 06:19:57;;;;;;;;;;;;;;;;;;5032128;28;19916;-61
2021/04/21 06:22:23;;;;;;;;;;;;;;;;;;5031964;28;19911;-63
2021/04/21 06:24:49;;;;;;;;;;;;;;;;;;5032357;28;19991;-60
2021/04/21 06:27:15;;;;;;;;;;;;;;;;;;5032249;28;20000;-64
2021/04/21 06:29:41;;;;;;;;;;;;;;;;;;5032080;28;20016;-64
2021/04/21 06:32:07;;;;;;;;;;;;;;;;;;5038189;28;19905;-64
2021/04/21 06:34:33;;;;;;;;;;;;;;;;;;5034781;28;19920;-66
2021/04/21 06:36:59;;;;;;;;;;;;;;;;;;5032233;28;19986;-64
2021/04/21 06:39:25;;;;;;;;;;;;;;;;;;5031812;28;19905;-64
2021/04/21 06:41:51;;;;;;;;;;;;;;;;;;5032470;28;19909;-64
2021/04/21 06:44:17;;;;;;;;;;;;;;;;;;5034675;28;19958;-62
2021/04/21 06:46:42;;;;;;;;;;;;;;;;;;5036006;28;20298;-63
2021/04/21 06:49:08;;;;;;;;;;;;;;;;;;5035629;28;20427;-64
2021/04/21 06:51:36;;;;;;;;;;;;;;;;;;5035387;28;19955;-56
2021/04/21 06:54:02;;;;;;;;;;;;;;;;;;5035725;28;20337;-65
2021/04/21 06:56:27;;;;;;;;;;;;;;;;;;5035992;28;19995;-66
2021/04/21 06:58:53;;;;;;;;;;;;;;;;;;5035538;28;19911;-65
2021/04/21 07:01:28;;;;;;;;;;;;;;;;;;5035257;28;20375;-67
2021/04/21 07:03:54;;;;;;;;;;;;;;;;;;5036053;28;20359;-66
2021/04/21 07:06:20;;;;;;;;;;;;;;;;;;5034921;28;19927;-63
2021/04/21 07:08:46;;;;;;;;;;;;;;;;;;5038775;28;19905;-62
2021/04/21 07:11:12;;;;;;;;;;;;;;;;;;5045578;28;20264;-61
2021/04/21 07:13:38;;;;;;;;;;;;;;;;;;5049127;28;20367;-62
2021/04/21 07:16:04;;;;;;;;;;;;;;;;;;5058080;28;19954;-64
2021/04/21 07:18:30;;;;;;;;;;;;;;;;;;5056189;28;20321;-63
2021/04/21 07:20:56;;;;;;;;;;;;;;;;;;5055320;28;19905;-64
2021/04/21 07:23:22;;;;;;;;;;;;;;;;;;5055243;28;19986;-63
2021/04/21 07:25:48;;;;;;;;;;;;;;;;;;5055560;28;19962;-65
2021/04/21 07:28:14;;;;;;;;;;;;;;;;;;5055529;28;20321;-64
2021/04/21 07:30:40;;;;;;;;;;;;;;;;;;5055796;28;20465;-65
2021/04/21 07:33:06;;;;;;;;;;;;;;;;;;5055233;28;20015;-65
2021/04/21 07:35:33;;;;;;;;;;;;;;;;;;5055107;28;19955;-63
2021/04/21 07:37:59;;;;;;;;;;;;;;;;;;5055120;28;19908;-64
2021/04/21 07:40:25;;;;;;;;;;;;;;;;;;5055601;28;20393;-65
2021/04/21 07:42:51;;;;;;;;;;;;;;;;;;5052495;28;19912;-65
2021/04/21 07:45:20;;;;;;;;;;;;;;;;;;5054478;28;20265;-65
2021/04/21 07:47:46;;;;;;;;;;;;;;;;;;5055073;28;19904;-65
2021/04/21 07:50:12;;;;;;;;;;;;;;;;;;5054407;28;19911;-66
2021/04/21 07:52:38;;;;;;;;;;;;;;;;;;5054068;28;19923;-65
2021/04/21 07:55:04;;;;;;;;;;;;;;;;;;5053162;28;19993;-62
2021/04/21 07:57:30;;;;;;;;;;;;;;;;;;5056332;28;19951;-71
2021/04/21 07:59:55;;;;;;;;;;;;;;;;;;5038139;28;19908;-73
2021/04/21 08:02:22;;;;;;;;;;;;;;;;;;5056691;28;19905;-69
2021/04/21 08:04:47;;;;;;;;;;;;;;;;;;5041777;28;19913;-63
2021/04/21 08:07:13;;;;;;;;;;;;;;;;;;5041404;28;19909;-68
2021/04/21 08:09:39;;;;;;;;;;;;;;;;;;5054106;28;20000;-66
2021/04/21 08:12:05;;;;;;;;;;;;;;;;;;5054226;28;20058;-67
2021/04/21 08:14:31;;;;;;;;;;;;;;;;;;5054045;28;19943;-65
2021/04/21 08:16:57;;;;;;;;;;;;;;;;;;5053595;28;19905;-63
2021/04/21 08:19:23;;;;;;;;;;;;;;;;;;5053871;28;19915;-67
2021/04/21 08:21:49;;;;;;;;;;;;;;;;;;5058631;28;19995;-69
2021/04/21 08:24:15;;;;;;;;;;;;;;;;;;5056081;28;19996;-61
2021/04/21 08:26:41;;;;;;;;;;;;;;;;;;5042268;28;19955;-67
2021/04/21 08:29:10;;;;;;;;;;;;;;;;;;5047270;28;19905;-62
2021/04/21 08:31:35;;;;;;;;;;;;;;;;;;5044035;28;19912;-64
2021/04/21 08:34:01;;;;;;;;;;;;;;;;;;5050997;28;19917;-65
2021/04/21 08:36:27;;;;;;;;;;;;;;;;;;5041420;28;19954;-66
2021/04/21 08:38:53;;;;;;;;;;;;;;;;;;5053162;28;19980;-61
2021/04/21 08:41:19;;;;;;;;;;;;;;;;;;5053838;28;19971;-68
2021/04/21 08:43:45;;;;;;;;;;;;;;;;;;5053383;28;19905;-69
2021/04/21 08:46:11;;;;;;;;;;;;;;;;;;5054378;28;19930;-71
2021/04/21 08:48:37;;;;;;;;;;;;;;;;;;5054571;28;19904;-71
2021/04/21 08:51:03;;;;;;;;;;;;;;;;;;5053753;28;20259;-70
2021/04/21 08:53:29;;;;;;;;;;;;;;;;;;5053723;28;19919;-68
2021/04/21 08:55:55;;;;;;;;;;;;;;;;;;5053788;28;19905;-67
2021/04/21 08:58:21;;;;;;;;;;;;;;;;;;5053626;28;19923;-66
2021/04/21 09:00:47;;;;;;;;;;;;;;;;;;5053774;28;20370;-64
2021/04/21 09:03:13;;;;;;;;;;;;;;;;;;5053554;28;19900;-68
2021/04/21 09:05:39;;;;;;;;;;;;;;;;;;5052961;28;19924;-67
2021/04/21 09:08:05;;;;;;;;;;;;;;;;;;5053475;28;19909;-64
2021/04/21 09:10:31;;;;;;;;;;;;;;;;;;5053198;28;19916;-66
2021/04/21 09:12:57;;;;;;;;;;;;;;;;;;5050874;28;19913;-66
2021/04/21 09:15:23;;;;;;;;;;;;;;;;;;5052652;28;20350;-63
2021/04/21 09:17:49;;;;;;;;;;;;;;;;;;5036624;28;19916;-72
2021/04/21 09:20:14;;;;;;;;;;;;;;;;;;5045192;28;19912;-66
2021/04/21 09:22:40;;;;;;;;;;;;;;;;;;5052449;28;19916;-62
2021/04/21 09:25:06;;;;;;;;;;;;;;;;;;5051894;28;20121;-64
2021/04/21 09:27:35;;;;;;;;;;;;;;;;;;5051285;28;19908;-62
2021/04/21 09:30:01;;;;;;;;;;;;;;;;;;5014007;28;20263;-65
2021/04/21 09:32:27;;;;;;;;;;;;;;;;;;5022617;28;19913;-63
2021/04/21 09:34:53;;;;;;;;;;;;;;;;;;5030523;28;19912;-65
2021/04/21 09:37:19;;;;;;;;;;;;;;;;;;5027754;28;19913;-63
2021/04/21 09:39:45;;;;;;;;;;;;;;;;;;5022396;28;19912;-60
2021/04/21 09:42:11;;;;;;;;;;;;;;;;;;5042889;28;19909;-67
2021/04/21 09:44:37;;;;;;;;;;;;;;;;;;5042306;28;19928;-66
2021/04/21 09:47:03;;;;;;;;;;;;;;;;;;5039318;28;20351;-63
2021/04/21 09:49:29;;;;;;;;;;;;;;;;;;5043274;28;19943;-60
2021/04/21 09:51:55;;;;;;;;;;;;;;;;;;5044710;28;20290;-61
2021/04/21 09:54:21;;;;;;;;;;;;;;;;;;5045382;28;20011;-62
2021/04/21 09:56:47;;;;;;;;;;;;;;;;;;5029449;28;20343;-66
2021/04/21 09:59:15;;;;;;;;;;;;;;;;;;5030882;28;19968;-69
2021/04/21 10:01:42;;;;;;;;;;;;;;;;;;5029030;28;19945;-62
2021/04/21 10:04:09;;;;;;;;;;;;;;;;;;5033416;28;19924;-63
2021/04/21 10:06:35;;;;;;;;;;;;;;;;;;5023567;28;19926;-61
2021/04/21 10:09:00;;;;;;;;;;;;;;;;;;5014898;28;19912;-62
2021/04/21 10:11:26;;;;;;;;;;;;;;;;;;5034198;28;19928;-68
2021/04/21 10:13:53;;;;;;;;;;;;;;;;;;5031484;28;20379;-72
2021/04/21 10:16:18;;;;;;;;;;;;;;;;;;5032606;28;20313;-71
2021/04/21 10:18:44;;;;;;;;;;;;;;;;;;5034858;28;19909;-67
2021/04/21 10:21:11;;;;;;;;;;;;;;;;;;5038468;28;19909;-68
2021/04/21 10:23:37;;;;;;;;;;;;;;;;;;5056409;28;19928;-67
2021/04/21 10:26:03;;;;;;;;;;;;;;;;;;5042176;28;19909;-66
2021/04/21 10:28:29;;;;;;;;;;;;;;;;;;5049102;28;20263;-64
2021/04/21 10:30:55;;;;;;;;;;;;;;;;;;5039950;28;19909;-57
2021/04/21 10:33:21;;;;;;;;;;;;;;;;;;5039859;28;20270;-63
2021/04/21 10:35:47;;;;;;;;;;;;;;;;;;5053129;28;19916;-66
2021/04/21 10:38:13;;;;;;;;;;;;;;;;;;5043917;28;19909;-61
2021/04/21 10:40:39;;;;;;;;;;;;;;;;;;5053346;28;20282;-64
2021/04/21 10:43:06;;;;;;;;;;;;;;;;;;5046549;28;19908;-66
2021/04/21 10:45:32;;;;;;;;;;;;;;;;;;5053807;28;19905;-65
2021/04/21 10:47:58;;;;;;;;;;;;;;;;;;5056383;28;19909;-65
2021/04/21 10:50:24;;;;;;;;;;;;;;;;;;5057352;28;20299;-64
2021/04/21 10:52:50;;;;;;;;;;;;;;;;;;5058188;28;19912;-60
2021/04/21 10:55:16;;;;;;;;;;;;;;;;;;5057866;28;19999;-64
2021/04/21 10:57:42;;;;;;;;;;;;;;;;;;5057263;28;19912;-66
2021/04/21 11:00:08;;;;;;;;;;;;;;;;;;5051226;28;19909;-62
2021/04/21 11:02:34;;;;;;;;;;;;;;;;;;5036510;28;20284;-60
2021/04/21 11:05:02;;;;;;;;;;;;;;;;;;5035726;28;19918;-62
2021/04/21 11:07:28;;;;;;;;;;;;;;;;;;5032940;28;19917;-64
2021/04/21 11:09:54;;;;;;;;;;;;;;;;;;5035744;28;19905;-64
2021/04/21 11:12:20;;;;;;;;;;;;;;;;;;5035370;28;19905;-62
2021/04/21 11:14:46;;;;;;;;;;;;;;;;;;5034262;28;20237;-60
2021/04/21 11:17:12;;;;;;;;;;;;;;;;;;5032027;28;19905;-65
2021/04/21 11:19:38;;;;;;;;;;;;;;;;;;5017370;28;20275;-64
2021/04/21 11:22:04;;;;;;;;;;;;;;;;;;5048787;28;19909;-66
2021/04/21 11:24:29;;;;;;;;;;;;;;;;;;5040160;28;19915;-68
2021/04/21 11:26:55;;;;;;;;;;;;;;;;;;5055342;28;19940;-66
2021/04/21 11:29:22;;;;;;;;;;;;;;;;;;5054371;28;19909;-69
2021/04/21 11:31:52;;;;;;;;;;;;;;;;;;5049393;28;20386;-68
2021/04/21 11:34:18;;;;;;;;;;;;;;;;;;5042325;28;19940;-68
2021/04/21 11:36:43;;;;;;;;;;;;;;;;;;5054983;28;20358;-67
2021/04/21 11:39:09;;;;;;;;;;;;;;;;;;5054370;28;19916;-63
2021/04/21 11:41:35;;;;;;;;;;;;;;;;;;5054601;28;19909;-64
2021/04/21 11:44:01;;;;;;;;;;;;;;;;;;5054655;28;19908;-64
2021/04/21 11:46:27;;;;;;;;;;;;;;;;;;5043512;28;20365;-64
2021/04/21 11:48:53;;;;;;;;;;;;;;;;;;5034906;28;19909;-62
2021/04/21 11:51:19;;;;;;;;;;;;;;;;;;5034634;28;19905;-60
2021/04/21 11:53:45;;;;;;;;;;;;;;;;;;5036470;28;19917;-65
2021/04/21 11:56:12;;;;;;;;;;;;;;;;;;5037055;28;19909;-65
2021/04/21 11:58:38;;;;;;;;;;;;;;;;;;5034121;28;19959;-65
2021/04/21 12:01:04;;;;;;;;;;;;;;;;;;5034769;28;19911;-63
2021/04/21 12:03:30;;;;;;;;;;;;;;;;;;5035164;28;19943;-65
2021/04/21 12:05:56;;;;;;;;;;;;;;;;;;5033850;28;19968;-63
2021/04/21 12:08:22;;;;;;;;;;;;;;;;;;5034041;28;19908;-65
2021/04/21 12:10:48;;;;;;;;;;;;;;;;;;5033090;28;20390;-64
2021/04/21 12:13:14;;;;;;;;;;;;;;;;;;5031388;28;19922;-64
2021/04/21 12:15:40;;;;;;;;;;;;;;;;;;5050221;28;19904;-62
2021/04/21 12:18:06;;;;;;;;;;;;;;;;;;5039332;28;20001;-64
2021/04/21 12:20:32;;;;;;;;;;;;;;;;;;5047635;28;19905;-64
2021/04/21 12:22:59;;;;;;;;;;;;;;;;;;5034204;28;20401;-65
2021/04/21 12:25:25;;;;;;;;;;;;;;;;;;5045395;28;20360;-65
2021/04/21 12:27:51;;;;;;;;;;;;;;;;;;5049787;28;19988;-68
2021/04/21 12:30:18;;;;;;;;;;;;;;;;;;5029273;28;20043;-66
2021/04/21 12:32:44;;;;;;;;;;;;;;;;;;5017763;28;19913;-67
2021/04/21 12:35:10;;;;;;;;;;;;;;;;;;5015771;28;20289;-65
2021/04/21 12:37:36;;;;;;;;;;;;;;;;;;5015392;28;19913;-65
2021/04/21 12:40:02;;;;;;;;;;;;;;;;;;5015248;28;20391;-66
2021/04/21 12:42:28;;;;;;;;;;;;;;;;;;5014425;28;20509;-64
2021/04/21 12:44:54;;;;;;;;;;;;;;;;;;5019111;28;19909;-65
2021/04/21 12:47:20;;;;;;;;;;;;;;;;;;5016085;28;19916;-62
2021/04/21 12:49:50;;;;;;;;;;;;;;;;;;5016700;28;19905;-66
2021/04/21 12:52:16;;;;;;;;;;;;;;;;;;5021917;28;19912;-63
2021/04/21 12:54:43;;;;;;;;;;;;;;;;;;5035503;28;20283;-61
2021/04/21 12:57:09;;;;;;;;;;;;;;;;;;5033578;28;19912;-59
2021/04/21 12:59:35;;;;;;;;;;;;;;;;;;5041864;28;19955;-67
2021/04/21 13:02:01;;;;;;;;;;;;;;;;;;5034686;28;19953;-64
2021/04/21 13:04:27;;;;;;;;;;;;;;;;;;5039871;28;20018;-68
2021/04/21 13:06:53;;;;;;;;;;;;;;;;;;5037800;28;19963;-67
2021/04/21 13:09:19;;;;;;;;;;;;;;;;;;5040636;28;20003;-62
2021/04/21 13:11:45;;;;;;;;;;;;;;;;;;5035800;28;19908;-62
2021/04/21 13:14:11;;;;;;;;;;;;;;;;;;5021482;28;19963;-62
2021/04/21 13:16:38;;;;;;;;;;;;;;;;;;5025146;28;19912;-62
2021/04/21 13:19:04;;;;;;;;;;;;;;;;;;5036457;28;19912;-62
2021/04/21 13:21:30;;;;;;;;;;;;;;;;;;5043066;28;19905;-64
2021/04/21 13:23:56;;;;;;;;;;;;;;;;;;5015483;28;19909;-63
2021/04/21 13:26:22;;;;;;;;;;;;;;;;;;5013349;28;20356;-58
2021/04/21 13:28:48;;;;;;;;;;;;;;;;;;5013016;28;20355;-62
2021/04/21 13:31:14;;;;;;;;;;;;;;;;;;5013473;28;19913;-63
2021/04/21 13:33:40;;;;;;;;;;;;;;;;;;5012508;28;19914;-63
2021/04/21 13:36:06;;;;;;;;;;;;;;;;;;5016746;28;20279;-61
2021/04/21 13:38:32;;;;;;;;;;;;;;;;;;5014525;28;20007;-62
2021/04/21 13:40:58;;;;;;;;;;;;;;;;;;5016373;28;19995;-61
2021/04/21 13:43:24;;;;;;;;;;;;;;;;;;5013939;28;19909;-63
2021/04/21 13:45:50;;;;;;;;;;;;;;;;;;5014712;28;19905;-60
2021/04/21 13:48:16;;;;;;;;;;;;;;;;;;5019125;28;19905;-62
2021/04/21 13:50:42;;;;;;;;;;;;;;;;;;5042078;28;19959;-58
2021/04/21 13:53:08;;;;;;;;;;;;;;;;;;5044292;28;20015;-62
2021/04/21 13:55:34;;;;;;;;;;;;;;;;;;5043237;28;19905;-61
2021/04/21 13:57:59;;;;;;;;;;;;;;;;;;5039218;28;19966;-65
2021/04/21 14:00:25;;;;;;;;;;;;;;;;;;5048045;28;19908;-63
2021/04/21 14:02:51;;;;;;;;;;;;;;;;;;5043755;28;20367;-65
2021/04/21 14:05:17;;;;;;;;;;;;;;;;;;5038100;28;19925;-59
2021/04/21 14:07:43;;;;;;;;;;;;;;;;;;5038322;28;20481;-62
2021/04/21 14:10:09;;;;;;;;;;;;;;;;;;5035224;28;19909;-62
2021/04/21 14:12:35;;;;;;;;;;;;;;;;;;5034100;28;20378;-67
2021/04/21 14:15:01;;;;;;;;;;;;;;;;;;5015648;28;19916;-65
2021/04/21 14:17:27;;;;;;;;;;;;;;;;;;5033730;28;19905;-66
2021/04/21 14:19:53;;;;;;;;;;;;;;;;;;5043811;28;19909;-63
2021/04/21 14:22:19;;;;;;;;;;;;;;;;;;5037043;28;19959;-62
2021/04/21 14:24:45;;;;;;;;;;;;;;;;;;5033270;28;19944;-65
2021/04/21 14:27:11;;;;;;;;;;;;;;;;;;5047930;28;20041;-61
2021/04/21 14:29:37;;;;;;;;;;;;;;;;;;5052456;28;19955;-62
2021/04/21 14:32:02;;;;;;;;;;;;;;;;;;5051981;28;20362;-63
2021/04/21 14:34:28;;;;;;;;;;;;;;;;;;5048194;28;19971;-63
2021/04/21 14:36:54;;;;;;;;;;;;;;;;;;5032769;28;19909;-63
2021/04/21 14:39:21;;;;;;;;;;;;;;;;;;5045885;28;19905;-62
2021/04/21 14:41:47;;;;;;;;;;;;;;;;;;5040314;28;19940;-63
2021/04/21 14:44:15;;;;;;;;;;;;;;;;;;5052566;28;19905;-65
2021/04/21 14:46:43;;;;;;;;;;;;;;;;;;5052228;28;19911;-64
2021/04/21 14:49:09;;;;;;;;;;;;;;;;;;5052305;28;19904;-62
2021/04/21 14:51:35;;;;;;;;;;;;;;;;;;5052390;28;20409;-64
2021/04/21 14:54:01;;;;;;;;;;;;;;;;;;5052300;28;19917;-65
2021/04/21 14:56:27;;;;;;;;;;;;;;;;;;5052456;28;19958;-63
2021/04/21 14:58:53;;;;;;;;;;;;;;;;;;5051842;28;19912;-63
2021/04/21 15:01:19;;;;;;;;;;;;;;;;;;5052190;28;19905;-65
2021/04/21 15:03:46;;;;;;;;;;;;;;;;;;5052408;28;20448;-64
2021/04/21 15:06:12;;;;;;;;;;;;;;;;;;5055615;28;19956;-62
2021/04/21 15:08:38;;;;;;;;;;;;;;;;;;5055565;28;19905;-63
2021/04/21 15:11:04;;;;;;;;;;;;;;;;;;5055843;28;19904;-64
2021/04/21 15:13:30;;;;;;;;;;;;;;;;;;5049368;28;19912;-62
2021/04/21 15:15:56;;;;;;;;;;;;;;;;;;5051516;28;19919;-62
2021/04/21 15:18:21;;;;;;;;;;;;;;;;;;5054808;28;19951;-60
2021/04/21 15:20:47;;;;;;;;;;;;;;;;;;5054534;28;19905;-61
2021/04/21 15:23:14;;;;;;;;;;;;;;;;;;5054897;28;19974;-61
2021/04/21 15:25:40;;;;;;;;;;;;;;;;;;5054212;28;19909;-62
2021/04/21 15:28:06;;;;;;;;;;;;;;;;;;5054644;28;19958;-62
2021/04/21 15:30:32;;;;;;;;;;;;;;;;;;5054346;28;19912;-61
2021/04/21 15:32:57;;;;;;;;;;;;;;;;;;5055146;28;19917;-62
2021/04/21 15:35:24;;;;;;;;;;;;;;;;;;5054639;28;19915;-61
2021/04/21 15:37:51;;;;;;;;;;;;;;;;;;5054414;28;19966;-63
2021/04/21 15:40:17;;;;;;;;;;;;;;;;;;5036696;28;19936;-64
2021/04/21 15:42:43;;;;;;;;;;;;;;;;;;5054702;28;20464;-62
2021/04/21 15:45:09;;;;;;;;;;;;;;;;;;5055430;28;19948;-62
2021/04/21 15:47:35;;;;;;;;;;;;;;;;;;5054894;28;19962;-65
2021/04/21 15:50:01;;;;;;;;;;;;;;;;;;5055357;28;19913;-64
2021/04/21 15:52:27;;;;;;;;;;;;;;;;;;5054970;28;19991;-61
2021/04/21 15:54:53;;;;;;;;;;;;;;;;;;5054731;28;19995;-63
2021/04/21 15:57:19;;;;;;;;;;;;;;;;;;5055374;28;19908;-62
2021/04/21 15:59:46;;;;;;;;;;;;;;;;;;5054929;28;19962;-62
2021/04/21 16:02:11;;;;;;;;;;;;;;;;;;5054481;28;19911;-62
2021/04/21 16:04:38;;;;;;;;;;;;;;;;;;5054523;28;19999;-62
2021/04/21 16:07:04;;;;;;;;;;;;;;;;;;5054351;28;20024;-60
2021/04/21 16:09:30;;;;;;;;;;;;;;;;;;5054119;28;20346;-61
2021/04/21 16:11:56;;;;;;;;;;;;;;;;;;5054587;28;19905;-61
2021/04/21 16:14:22;;;;;;;;;;;;;;;;;;5050663;28;19919;-57
2021/04/21 16:16:48;;;;;;;;;;;;;;;;;;5052922;28;19984;-61
2021/04/21 16:19:14;;;;;;;;;;;;;;;;;;5053283;28;19905;-60
2021/04/21 16:21:40;;;;;;;;;;;;;;;;;;5039260;28;19995;-60
2021/04/21 16:24:06;;;;;;;;;;;;;;;;;;5039273;28;19912;-62
2021/04/21 16:26:33;;;;;;;;;;;;;;;;;;5053410;28;20312;-63
2021/04/21 16:28:59;;;;;;;;;;;;;;;;;;5053322;28;19905;-63
2021/04/21 16:31:25;;;;;;;;;;;;;;;;;;5053419;28;19913;-64
2021/04/21 16:33:50;;;;;;;;;;;;;;;;;;5042483;28;20373;-62
2021/04/21 16:36:16;;;;;;;;;;;;;;;;;;5035346;28;19917;-60